Time;durP1;ratioP1;P1;durP2;ratioP2;P2;SDS_P1;SDS_P2;PMS_P1;PMS_P2;Temp;Humidity;BMP_temperature;BMP_pressure;BME280_temperature;BME280_humidity;BME280_pressure;Samples;Min_cycle;Max_cycle;Signal;HPM_P1;HPM_P2
2022/08/26 00:01:38;;;;;;;1.95;0.93;;;;;;;20.53;91.42;101609.69;10297741;28;20077;-70
2022/08/26 00:06:39;;;;;;;1.60;1.38;;;;;;;20.46;90.64;101614.50;10297246;28;20053;-70
2022/08/26 00:11:39;;;;;;;9.77;1.33;;;;;;;20.32;89.70;101619.44;10295837;28;20034;-70
2022/08/26 00:16:40;;;;;;;2.92;1.92;;;;;;;20.21;89.79;101624.75;10295446;28;20047;-70
2022/08/26 00:21:40;;;;;;;1.92;1.25;;;;;;;20.16;89.46;101619.13;10297625;28;20181;-70
2022/08/26 00:26:41;;;;;;;4.25;1.88;;;;;;;20.10;89.82;101622.88;10297178;28;20039;-70
2022/08/26 00:31:41;;;;;;;3.78;2.42;;;;;;;20.09;91.22;101618.44;10295190;28;20039;-70
2022/08/26 00:36:42;;;;;;;1.88;1.55;;;;;;;20.07;91.54;101626.13;10295501;28;20394;-70
2022/08/26 00:41:42;;;;;;;1.95;1.20;;;;;;;20.03;92.33;101627.66;10294687;28;20234;-70
2022/08/26 00:46:49;;;;;;;8.23;1.48;;;;;;;20.06;92.43;101629.91;10295834;28;20046;-71
2022/08/26 00:51:55;;;;;;;4.60;1.65;;;;;;;19.97;95.14;101636.88;10296098;28;20097;-70
2022/08/26 00:57:05;;;;;;;1.25;0.82;;;;;;;19.90;95.49;101626.00;10295949;28;20505;-70
2022/08/26 01:02:05;;;;;;;15.32;2.17;;;;;;;19.89;93.28;101623.53;10279692;28;20113;-70
2022/08/26 01:07:06;;;;;;;3.35;1.67;;;;;;;19.93;96.79;101621.94;10279436;28;20474;-70
2022/08/26 01:12:06;;;;;;;6.95;1.77;;;;;;;19.93;94.69;101621.94;10293737;28;20066;-70
2022/08/26 01:17:07;;;;;;;5.85;1.98;;;;;;;19.86;95.21;101624.00;10295538;28;20043;-70
2022/08/26 01:22:18;;;;;;;2.67;1.55;;;;;;;19.83;94.46;101625.31;10294905;28;20050;-70
2022/08/26 01:27:19;;;;;;;4.22;1.25;;;;;;;19.83;92.86;101627.22;10279444;28;20474;-70
2022/08/26 01:32:20;;;;;;;2.95;2.00;;;;;;;19.80;93.68;101631.28;10293307;28;20114;-70
2022/08/26 01:37:22;;;;;;;5.13;2.08;;;;;;;19.84;92.86;101631.63;10293307;28;20061;-70
2022/08/26 01:42:24;;;;;;;5.57;2.10;;;;;;;19.93;91.74;101632.94;10291222;28;20075;-70
2022/08/26 01:47:25;;;;;;;7.05;2.35;;;;;;;19.94;92.52;101638.22;10306404;28;20042;-70
2022/08/26 01:52:26;;;;;;;5.57;1.63;;;;;;;19.94;91.73;101645.59;10306606;28;20067;-70
2022/08/26 01:57:27;;;;;;;4.47;1.42;;;;;;;19.95;92.79;101644.53;10291886;28;20502;-70
2022/08/26 02:02:27;;;;;;;9.40;1.63;;;;;;;19.89;95.83;101640.84;10306818;28;20049;-70
2022/08/26 02:07:28;;;;;;;6.00;1.10;;;;;;;19.89;94.36;101645.50;10306619;28;20467;-70
2022/08/26 02:12:28;;;;;;;8.60;1.88;;;;;;;19.89;92.55;101648.25;10307126;28;20038;-70
2022/08/26 02:17:32;;;;;;;14.45;1.95;;;;;;;19.93;92.29;101643.94;10289618;28;20026;-70
2022/08/26 02:22:33;;;;;;;1.33;1.23;;;;;;;19.92;93.22;101645.03;10306780;28;20081;-71
2022/08/26 02:27:33;;;;;;;6.35;1.50;;;;;;;19.91;92.42;101646.09;10306045;28;20034;-70
2022/08/26 02:32:34;;;;;;;3.88;1.48;;;;;;;19.88;91.82;101649.34;10306583;28;20034;-70
2022/08/26 02:37:34;;;;;;;5.20;1.95;;;;;;;19.86;92.16;101643.25;10307187;28;20055;-70
2022/08/26 02:42:34;;;;;;;5.57;1.52;;;;;;;19.88;91.06;101646.59;10306123;28;20031;-70
2022/08/26 02:47:36;;;;;;;7.60;1.10;;;;;;;19.90;91.51;101649.91;10306402;28;20081;-70
2022/08/26 02:52:36;;;;;;;1.98;1.10;;;;;;;19.91;90.28;101643.34;10300843;28;20494;-70
2022/08/26 02:57:37;;;;;;;7.38;1.67;;;;;;;19.89;89.62;101642.75;10300100;28;20034;-71
2022/08/26 03:02:37;;;;;;;1.60;1.45;;;;;;;19.90;88.79;101641.66;10300614;28;20073;-70
2022/08/26 03:07:37;;;;;;;7.25;1.63;;;;;;;19.92;89.29;101645.03;10298769;28;20054;-70
2022/08/26 03:12:38;;;;;;;17.25;2.53;;;;;;;19.97;89.84;101636.88;10299417;28;20442;-70
2022/08/26 03:17:39;;;;;;;2.08;1.70;;;;;;;20.04;89.80;101628.50;10298893;28;20031;-70
2022/08/26 03:22:39;;;;;;;2.50;1.30;;;;;;;20.00;89.16;101625.38;10298456;28;20042;-70
2022/08/26 03:27:39;;;;;;;6.78;2.22;;;;;;;19.93;89.68;101624.69;10300108;28;20042;-70
2022/08/26 03:32:40;;;;;;;1.17;1.08;;;;;;;19.84;89.31;101618.72;10298729;28;20062;-71
2022/08/26 03:37:40;;;;;;;7.20;1.63;;;;;;;19.81;89.38;101627.47;10301284;28;20407;-70
2022/08/26 03:42:41;;;;;;;1.65;0.85;;;;;;;19.85;90.13;101627.84;10298210;28;20617;-70
2022/08/26 03:47:41;;;;;;;3.63;1.10;;;;;;;19.82;89.48;101623.66;10298815;28;20042;-70
2022/08/26 03:52:42;;;;;;;4.07;1.20;;;;;;;19.81;88.48;101607.38;10299590;28;20447;-70
2022/08/26 03:57:42;;;;;;;2.03;1.52;;;;;;;19.76;88.85;101608.13;10297553;28;20368;-70
2022/08/26 04:02:44;;;;;;;5.57;1.67;;;;;;;19.76;88.87;101623.78;10297246;28;20039;-70
2022/08/26 04:07:46;;;;;;;5.40;2.40;;;;;;;19.74;88.62;101627.59;10297122;28;20043;-70
2022/08/26 04:12:46;;;;;;;5.50;1.92;;;;;;;19.76;89.55;101627.38;10295995;28;20038;-70
2022/08/26 04:17:46;;;;;;;1.25;1.15;;;;;;;19.89;91.66;101618.03;10297572;28;20037;-70
2022/08/26 04:22:47;;;;;;;2.83;1.15;;;;;;;19.89;94.79;101618.03;10296391;28;20039;-70
2022/08/26 04:27:47;;;;;;;7.65;2.17;;;;;;;19.91;94.88;101615.84;10295215;28;20058;-70
2022/08/26 04:32:48;;;;;;;4.00;1.52;;;;;;;19.97;94.39;101625.88;10296220;28;20039;-70
2022/08/26 04:37:49;;;;;;;1.45;1.13;;;;;;;19.98;94.98;101624.81;10294742;28;20486;-70
2022/08/26 04:42:50;;;;;;;10.88;2.00;;;;;;;19.93;94.80;101617.28;10296144;28;20031;-70
2022/08/26 04:47:55;;;;;;;9.95;2.97;;;;;;;19.94;95.20;101632.72;10295905;28;20185;-70
2022/08/26 04:52:55;;;;;;;1.95;1.33;;;;;;;19.96;94.04;101640.72;10294474;28;20390;-70
2022/08/26 04:57:56;;;;;;;3.38;1.08;;;;;;;19.96;95.60;101635.22;10295934;28;20053;-71
2022/08/26 05:02:56;;;;;;;8.70;1.70;;;;;;;19.99;94.63;101640.22;10296700;28;20085;-70
2022/08/26 05:07:56;;;;;;;1.45;1.35;;;;;;;20.06;94.04;101648.34;10294142;28;20470;-70
2022/08/26 05:12:59;;;;;;;3.95;1.85;;;;;;;20.06;94.20;101635.41;10293203;28;20058;-70
2022/08/26 05:17:59;;;;;;;8.30;1.77;;;;;;;20.07;93.34;101647.25;10294572;28;20471;-70
2022/08/26 05:23:00;;;;;;;1.25;1.15;;;;;;;20.09;93.30;101656.94;10294880;28;20047;-70
2022/08/26 05:28:00;;;;;;;6.88;1.13;;;;;;;20.14;92.43;101654.31;10293329;28;20031;-70
2022/08/26 05:33:00;;;;;;;6.72;2.38;;;;;;;20.17;93.82;101656.56;10294855;28;20085;-70
2022/08/26 05:38:01;;;;;;;4.47;1.40;;;;;;;20.12;95.14;101645.44;10294053;28;20550;-70
2022/08/26 05:43:06;;;;;;;3.30;1.60;;;;;;;20.19;94.13;101650.81;10293782;28;20027;-70
2022/08/26 05:48:07;;;;;;;1.55;1.33;;;;;;;20.31;92.54;101651.63;10295591;28;20130;-70
2022/08/26 05:53:08;;;;;;;2.33;1.20;;;;;;;20.39;92.01;101664.16;10292137;28;20566;-70
2022/08/26 05:58:09;;;;;;;0.70;0.70;;;;;;;20.36;92.05;101670.16;10293726;28;20039;-70
2022/08/26 06:03:09;;;;;;;9.52;1.25;;;;;;;20.27;92.43;101668.88;10293719;28;20039;-70
2022/08/26 06:08:17;;;;;;;10.55;2.55;;;;;;;20.28;91.50;101676.84;10294324;28;20105;-70
2022/08/26 06:13:20;;;;;;;3.45;1.02;;;;;;;20.29;91.69;101677.69;10294354;28;20125;-70
2022/08/26 06:18:22;;;;;;;1.92;1.30;;;;;;;20.26;91.67;101691.91;10275463;28;20386;-70
2022/08/26 06:28:42;;;;;;;2.50;1.02;;;;;;;20.14;92.39;101703.81;10299926;28;20038;-69
2022/08/26 06:33:43;;;;;;;9.75;1.73;;;;;;;20.24;91.12;101700.44;10301073;28;20157;-69
2022/08/26 06:38:44;;;;;;;4.32;1.38;;;;;;;20.40;90.71;101707.09;10298361;28;20042;-68
2022/08/26 06:43:45;;;;;;;0.98;0.93;;;;;;;20.44;89.51;101708.25;10298819;28;20491;-70
2022/08/26 06:48:46;;;;;;;6.03;1.30;;;;;;;20.45;89.25;101709.94;10301894;28;20133;-70
2022/08/26 06:53:46;;;;;;;4.22;1.15;;;;;;;20.44;89.42;101716.53;10300709;28;20517;-70
2022/08/26 06:58:47;;;;;;;6.65;1.27;;;;;;;20.38;89.26;101712.00;10298325;28;20035;-69
2022/08/26 07:03:48;;;;;;;2.50;0.82;;;;;;;20.34;89.38;101719.06;10281495;28;20125;-70
2022/08/26 07:08:51;;;;;;;2.38;1.77;;;;;;;20.36;88.78;101723.25;10297748;28;20396;-70
2022/08/26 07:13:52;;;;;;;1.95;1.35;;;;;;;20.49;87.85;101719.38;10298876;28;20066;-69
2022/08/26 07:18:52;;;;;;;1.88;1.33;;;;;;;20.54;87.73;101725.00;10298143;28;20069;-70
2022/08/26 07:23:53;;;;;;;5.88;1.05;;;;;;;20.59;87.13;101727.88;10298215;28;20066;-70
2022/08/26 07:28:54;;;;;;;3.60;1.48;;;;;;;20.57;86.61;101730.03;10281760;28;20046;-69
2022/08/26 07:33:55;;;;;;;9.18;1.92;;;;;;;20.65;86.31;101742.59;10297317;28;20034;-70
2022/08/26 07:38:55;;;;;;;2.58;1.50;;;;;;;20.63;85.64;101756.56;10298189;28;20046;-70
2022/08/26 07:43:56;;;;;;;9.48;1.73;;;;;;;20.59;85.27;101755.41;10295762;28;20031;-70
2022/08/26 07:48:56;;;;;;;1.02;0.80;;;;;;;20.45;86.67;101764.94;10297759;28;20089;-70
2022/08/26 07:53:57;;;;;;;3.47;1.17;;;;;;;20.45;85.84;101756.69;10298410;28;20054;-70
2022/08/26 07:58:57;;;;;;;0.47;0.47;;;;;;;20.40;85.45;101762.94;10296449;28;20380;-68
2022/08/26 08:03:59;;;;;;;5.45;1.80;;;;;;;20.32;86.19;101765.22;10297305;28;20470;-69
2022/08/26 08:08:59;;;;;;;0.70;0.70;;;;;;;20.33;85.96;101765.00;10296564;28;20126;-68
2022/08/26 08:14:00;;;;;;;2.88;1.20;;;;;;;20.17;86.17;101765.75;10295228;28;20022;-69
2022/08/26 08:19:00;;;;;;;2.50;1.10;;;;;;;19.91;86.73;101778.03;10296647;28;20426;-69
2022/08/26 08:24:01;;;;;;;1.58;1.05;;;;;;;19.78;86.97;101784.59;10296113;28;20069;-69
2022/08/26 08:29:01;;;;;;;1.15;1.05;;;;;;;19.66;91.50;101781.84;10296901;28;20043;-69
2022/08/26 08:34:02;;;;;;;2.65;1.33;;;;;;;19.73;89.18;101793.56;10278138;28;20035;-69
2022/08/26 08:39:02;;;;;;;7.00;0.93;;;;;;;19.86;88.88;101786.19;10295902;28;20185;-69
2022/08/26 08:44:03;;;;;;;0.70;0.70;;;;;;;20.20;88.08;101773.50;10296568;28;20065;-69
2022/08/26 08:49:03;;;;;;;0.90;0.90;;;;;;;20.61;87.67;101775.25;10277730;28;20495;-69
2022/08/26 08:54:04;;;;;;;10.00;1.63;;;;;;;21.24;87.28;101783.63;10292950;28;20034;-69
2022/08/26 08:59:21;;;;;;;5.40;1.55;;;;;;;21.44;85.94;101772.16;10294984;28;20042;-69
2022/08/26 09:04:59;;;;;;;6.75;1.50;;;;;;;21.51;84.95;101779.19;10294820;28;20035;-69
2022/08/26 09:10:04;;;;;;;3.35;1.60;;;;;;;21.76;85.27;101776.03;10294405;28;20031;-69
2022/08/26 09:15:16;;;;;;;6.70;2.10;;;;;;;22.00;84.94;101771.16;10294766;28;20103;-70
2022/08/26 09:20:48;;;;;;;5.43;2.78;;;;;;;21.58;84.54;101777.13;10295134;28;20049;-70
2022/08/26 09:25:51;;;;;;;1.23;1.13;;;;;;;21.41;84.50;101776.28;10295059;28;20035;-69
2022/08/26 09:31:02;;;;;;;1.67;1.58;;;;;;;;;;10291905;28;20058;-69
2022/08/26 09:36:31;;;;;;;2.72;2.08;;;;;;;21.57;82.76;101778.22;10292862;28;20162;-69
2022/08/26 09:41:32;;;;;;;2.05;1.63;;;;;;;21.60;82.20;101793.38;10294889;28;20070;-69
2022/08/26 09:46:32;;;;;;;8.48;1.58;;;;;;;21.76;81.94;101798.09;10292384;28;20118;-70
2022/08/26 09:51:33;;;;;;;9.45;1.95;;;;;;;22.17;81.55;101789.63;10292891;28;20037;-70
2022/08/26 09:56:35;;;;;;;2.17;1.58;;;;;;;22.64;80.43;101783.66;10295311;28;20035;-70
2022/08/26 10:01:40;;;;;;;9.40;1.88;;;;;;;22.78;80.25;101784.91;10298739;28;20490;-70
2022/08/26 10:07:04;;;;;;;4.13;2.30;;;;;;;22.45;79.17;101786.72;10301597;28;20386;-70
2022/08/26 10:12:14;;;;;;;2.38;1.63;;;;;;;22.17;78.66;101773.09;10300691;28;20030;-74
2022/08/26 10:17:34;;;;;;;9.73;2.35;;;;;;;22.37;78.73;101786.34;10284363;28;20035;-75
2022/08/26 10:23:01;;;;;;;5.88;2.55;;;;;;;22.41;77.46;101784.75;10301677;28;20391;-70
2022/08/26 10:28:31;;;;;;;1.40;1.08;;;;;;;22.06;77.02;101791.38;10300682;28;20443;-69
2022/08/26 10:33:31;;;;;;;8.80;1.45;;;;;;;21.77;78.39;101802.50;10286175;28;20418;-68
2022/08/26 10:38:35;;;;;;;3.35;2.35;;;;;;;21.69;78.28;101800.16;10283370;28;20043;-69
2022/08/26 10:43:41;;;;;;;3.03;1.63;;;;;;;21.68;77.26;101800.44;10283898;28;20375;-69
2022/08/26 10:48:51;;;;;;;2.60;1.80;;;;;;;21.75;76.77;101795.56;10298719;28;20022;-70
2022/08/26 10:54:00;;;;;;;4.60;2.13;;;;;;;21.81;76.29;101797.31;10298571;28;20029;-73
2022/08/26 10:59:05;;;;;;;7.72;2.47;;;;;;;22.03;75.14;101792.72;10299601;28;20030;-72
2022/08/26 11:04:06;;;;;;;5.43;1.85;;;;;;;22.17;75.12;101792.38;10298939;28;20031;-72
2022/08/26 11:09:07;;;;;;;2.78;1.40;;;;;;;22.29;75.70;101791.19;10299491;28;20427;-72
2022/08/26 11:14:29;;;;;;;1.50;1.40;;;;;;;22.52;74.19;101800.34;10297971;28;20397;-73
2022/08/26 11:19:41;;;;;;;6.32;1.23;;;;;;;22.75;72.62;101802.03;10299446;28;20085;-71
2022/08/26 11:24:53;;;;;;;2.40;1.50;;;;;;;23.01;71.75;101807.91;10298698;28;20030;-71
2022/08/26 11:30:08;;;;;;;2.55;0.98;;;;;;;23.16;71.48;101810.81;10298480;28;20118;-71
2022/08/26 11:35:22;;;;;;;3.90;1.42;;;;;;;23.12;72.18;101810.50;10297046;28;20058;-71
2022/08/26 11:40:39;;;;;;;10.32;1.85;;;;;;;22.72;70.55;101797.03;10297767;28;20463;-71
2022/08/26 11:45:42;;;;;;;5.13;2.50;;;;;;;22.70;70.95;101791.75;10297651;28;20034;-71
2022/08/26 11:51:05;;;;;;;5.53;1.95;;;;;;;22.87;71.43;101802.72;10297260;28;20390;-71
2022/08/26 11:56:22;;;;;;;1.65;1.08;;;;;;;22.59;70.08;101795.47;10281848;28;20137;-70
2022/08/26 12:01:30;;;;;;;3.65;1.75;;;;;;;22.26;70.80;101791.69;10281135;28;20082;-70
2022/08/26 12:06:36;;;;;;;4.93;1.65;;;;;;;22.16;71.34;101794.31;10296720;28;20038;-69
2022/08/26 12:11:37;;;;;;;2.17;1.97;;;;;;;22.29;71.27;101793.97;10297688;28;20213;-70
2022/08/26 12:16:38;;;;;;;7.13;1.67;;;;;;;22.54;69.46;101789.88;10279197;28;20031;-69
2022/08/26 12:21:38;;;;;;;10.77;2.17;;;;;;;22.78;69.65;101787.69;10295611;28;20050;-68
2022/08/26 12:26:39;;;;;;;3.45;1.20;;;;;;;22.74;68.76;101786.53;10295112;28;20039;-71
2022/08/26 12:31:40;;;;;;;10.90;2.60;;;;;;;22.55;69.45;101786.03;10295363;28;20567;-71
2022/08/26 12:36:56;;;;;;;2.08;1.85;;;;;;;22.63;68.04;101801.31;10297218;28;20084;-71
2022/08/26 12:41:58;;;;;;;5.45;1.25;;;;;;;23.57;67.96;101794.63;10294144;28;20451;-72
2022/08/26 12:47:14;;;;;;;9.63;2.75;;;;;;;23.83;65.83;101799.28;10294097;28;20037;-71
2022/08/26 12:52:30;;;;;;;3.50;2.45;;;;;;;24.20;65.34;101792.91;10295978;28;20110;-71
2022/08/26 12:57:35;;;;;;;6.95;1.95;;;;;;;24.61;62.96;101795.13;10294042;28;20045;-71
2022/08/26 13:02:36;;;;;;;2.15;1.48;;;;;;;24.89;62.19;101794.69;10294174;28;20070;-74
2022/08/26 13:07:37;;;;;;;4.03;2.03;;;;;;;26.41;59.57;101797.78;10277258;28;20082;-73
2022/08/26 13:12:39;;;;;;;2.20;1.30;;;;;;;25.68;62.90;101801.75;10294806;28;20065;-73
2022/08/26 13:17:40;;;;;;;12.82;2.60;;;;;;;24.81;63.43;101807.09;10293821;28;20042;-73
2022/08/26 13:22:40;;;;;;;1.70;1.60;;;;;;;24.33;65.04;101794.38;10293782;28;20034;-70
2022/08/26 13:27:40;;;;;;;3.97;1.33;;;;;;;24.41;63.77;101798.56;10293734;28;20565;-70
2022/08/26 13:32:41;;;;;;;2.95;1.77;;;;;;;24.06;62.65;101809.16;10292805;28;20042;-71
2022/08/26 13:37:41;;;;;;;4.75;2.17;;;;;;;23.87;64.65;101803.22;10291069;28;20055;-71
2022/08/26 13:42:42;;;;;;;1.67;1.48;;;;;;;23.63;63.98;101791.63;10294175;28;20142;-71
2022/08/26 13:47:43;;;;;;;3.40;1.80;;;;;;;23.47;63.04;101797.31;10293878;28;20549;-73
2022/08/26 13:52:43;;;;;;;12.20;1.70;;;;;;;23.61;63.74;101788.31;10294304;28;20042;-71
2022/08/26 13:57:45;;;;;;;2.38;1.55;;;;;;;23.49;60.29;101795.13;10292943;28;20517;-71
2022/08/26 14:02:46;;;;;;;1.50;1.40;;;;;;;23.37;61.31;101796.09;10295163;28;20042;-72
2022/08/26 14:07:46;;;;;;;4.53;2.38;;;;;;;23.43;61.62;101792.28;10294269;28;20052;-71
2022/08/26 14:12:47;;;;;;;1.08;0.90;;;;;;;23.40;60.79;101790.06;10296012;28;20046;-70
2022/08/26 14:17:47;;;;;;;1.60;1.13;;;;;;;23.54;61.65;101778.56;10293407;28;20494;-71
2022/08/26 14:22:48;;;;;;;6.75;1.73;;;;;;;23.65;61.45;101769.28;10292145;28;20138;-76
2022/08/26 14:27:49;;;;;;;2.35;1.23;;;;;;;23.84;61.56;101773.31;10277851;28;20043;-69
2022/08/26 14:32:55;;;;;;;2.00;1.90;;;;;;;23.90;61.31;101768.66;10293195;28;20023;-70
2022/08/26 14:37:55;;;;;;;1.45;1.35;;;;;;;23.83;60.75;101771.63;10292019;28;20071;-70
2022/08/26 14:42:56;;;;;;;14.88;1.80;;;;;;;23.64;58.01;101765.69;10292891;28;20121;-70
2022/08/26 14:47:58;;;;;;;2.40;1.65;;;;;;;23.63;59.54;101772.28;10297850;28;20038;-71
2022/08/26 14:58:18;;;;;;;10.40;1.95;;;;;;;23.71;60.31;101772.91;10298642;28;20030;-70
2022/08/26 15:03:18;;;;;;;1.42;1.33;;;;;;;23.58;59.86;101771.41;10300424;28;20034;-70
2022/08/26 15:08:19;;;;;;;3.47;1.98;;;;;;;23.40;60.58;101773.47;10299775;28;20063;-70
2022/08/26 15:13:19;;;;;;;7.57;2.33;;;;;;;23.35;60.82;101770.66;10298741;28;20034;-70
2022/08/26 15:18:21;;;;;;;1.50;1.40;;;;;;;23.06;59.86;101767.31;10299238;28;20466;-70
2022/08/26 15:23:21;;;;;;;2.97;1.83;;;;;;;23.00;59.66;101764.75;10298217;28;20031;-71
2022/08/26 15:28:22;;;;;;;3.55;1.80;;;;;;;23.18;59.84;101754.19;10298196;28;20031;-70
2022/08/26 15:33:22;;;;;;;4.35;1.67;;;;;;;23.24;59.66;101745.97;10300184;28;20042;-71
2022/08/26 15:38:22;;;;;;;2.90;2.47;;;;;;;23.14;59.26;101752.22;10301071;28;20054;-71
2022/08/26 15:43:24;;;;;;;5.07;2.00;;;;;;;22.97;60.02;101750.41;10298310;28;20034;-70
2022/08/26 15:48:24;;;;;;;2.22;1.80;;;;;;;22.80;60.07;101757.91;10297350;28;20039;-71
2022/08/26 15:53:25;;;;;;;6.07;1.65;;;;;;;22.46;60.66;101748.91;10281362;28;20039;-71
2022/08/26 15:58:26;;;;;;;2.97;2.28;;;;;;;21.87;60.96;101743.09;10280697;28;20030;-70
2022/08/26 16:03:27;;;;;;;2.25;2.08;;;;;;;21.69;61.44;101752.47;10296497;28;20058;-71
2022/08/26 16:08:27;;;;;;;1.95;1.77;;;;;;;21.40;62.20;101740.69;10297809;28;20077;-71
2022/08/26 16:13:27;;;;;;;3.50;2.63;;;;;;;21.33;62.55;101749.91;10297605;28;20093;-72
2022/08/26 16:18:28;;;;;;;5.20;2.65;;;;;;;21.06;63.07;101743.38;10296738;28;20046;-71
2022/08/26 16:23:29;;;;;;;5.78;2.17;;;;;;;20.73;63.85;101749.59;10297970;28;20125;-70
2022/08/26 16:28:29;;;;;;;2.53;1.92;;;;;;;20.55;63.94;101737.72;10295618;28;20118;-70
2022/08/26 16:33:30;;;;;;;8.73;1.80;;;;;;;20.42;64.86;101748.94;10295642;28;20422;-70
2022/08/26 16:38:30;;;;;;;3.30;1.67;;;;;;;20.24;65.02;101738.94;10295502;28;20064;-70
2022/08/26 16:43:31;;;;;;;6.20;2.22;;;;;;;20.00;65.72;101743.59;10296573;28;20035;-70
2022/08/26 16:48:31;;;;;;;2.85;2.33;;;;;;;19.85;66.21;101730.38;10296310;28;20086;-71
2022/08/26 16:53:32;;;;;;;3.17;1.88;;;;;;;19.82;66.54;101738.25;10295312;28;20459;-70
2022/08/26 16:58:32;;;;;;;6.45;1.90;;;;;;;19.84;66.33;101736.09;10295513;28;20035;-70
2022/08/26 17:03:33;;;;;;;3.22;2.28;;;;;;;19.84;66.97;101730.59;10296067;28;20031;-70
2022/08/26 17:08:34;;;;;;;5.35;2.05;;;;;;;19.73;67.04;101741.34;10296194;28;20077;-70
2022/08/26 17:13:35;;;;;;;6.80;2.05;;;;;;;19.64;67.33;101742.78;10278726;28;20047;-70
2022/08/26 17:18:35;;;;;;;3.53;2.55;;;;;;;19.46;68.31;101748.31;10294336;28;20035;-70
2022/08/26 17:23:36;;;;;;;3.60;2.45;;;;;;;19.35;67.66;101751.91;10293637;28;20082;-70
2022/08/26 17:28:37;;;;;;;2.05;1.85;;;;;;;19.19;69.17;101756.16;10276980;28;20490;-70
2022/08/26 17:33:38;;;;;;;19.25;2.47;;;;;;;19.11;69.63;101754.56;10295077;28;20089;-70
2022/08/26 17:38:38;;;;;;;2.80;2.60;;;;;;;19.05;69.26;101748.13;10297200;28;20066;-70
2022/08/26 17:43:39;;;;;;;8.45;2.20;;;;;;;18.97;71.08;101758.56;10297707;28;20041;-71
2022/08/26 17:48:39;;;;;;;2.35;1.73;;;;;;;18.92;71.43;101753.78;10277628;28;20037;-70
2022/08/26 17:53:40;;;;;;;8.63;2.33;;;;;;;18.86;71.83;101753.84;10277310;28;20031;-71
2022/08/26 17:58:41;;;;;;;3.17;2.10;;;;;;;18.80;72.09;101758.38;10293771;28;20426;-70
2022/08/26 18:03:41;;;;;;;4.20;2.45;;;;;;;18.74;71.04;101759.31;10293517;28;20027;-71
2022/08/26 18:08:42;;;;;;;3.20;2.83;;;;;;;18.62;70.92;101756.47;10291716;28;20117;-70
2022/08/26 18:13:43;;;;;;;6.70;2.15;;;;;;;18.52;70.91;101761.66;10277325;28;20047;-70
2022/08/26 18:18:45;;;;;;;3.70;2.17;;;;;;;18.46;70.65;101770.81;10292890;28;20106;-71
2022/08/26 18:23:45;;;;;;;2.85;2.10;;;;;;;18.40;71.23;101779.94;10283375;28;20062;-70
2022/08/26 18:28:46;;;;;;;6.10;2.13;;;;;;;18.24;71.51;101774.00;10301373;28;20153;-70
2022/08/26 18:33:46;;;;;;;6.18;1.88;;;;;;;18.18;72.74;101785.03;10300629;28;20098;-70
2022/08/26 18:38:47;;;;;;;8.20;1.92;;;;;;;18.06;72.07;101790.41;10302334;28;20090;-72
2022/08/26 18:43:51;;;;;;;3.35;2.13;;;;;;;17.96;72.60;101795.56;10299713;28;20034;-72
2022/08/26 18:48:52;;;;;;;4.03;2.88;;;;;;;17.88;74.26;101796.69;10300187;28;20463;-72
2022/08/26 18:53:53;;;;;;;10.32;2.35;;;;;;;17.82;72.65;101789.38;10299853;28;20463;-72
2022/08/26 18:58:53;;;;;;;2.33;2.13;;;;;;;17.71;72.12;101792.78;10298992;28;20047;-73
2022/08/26 19:03:55;;;;;;;1.98;1.80;;;;;;;17.62;73.25;101798.56;10299762;28;20042;-72
2022/08/26 19:08:55;;;;;;;4.82;1.95;;;;;;;17.55;73.00;101803.25;10299822;28;20089;-73
2022/08/26 19:13:55;;;;;;;6.53;2.33;;;;;;;17.45;73.03;101808.34;10300062;28;20041;-72
2022/08/26 19:18:57;;;;;;;4.18;2.38;;;;;;;17.33;72.53;101811.00;10300010;28;20041;-72
2022/08/26 19:23:59;;;;;;;7.82;2.83;;;;;;;17.22;74.86;101806.19;10281943;28;20035;-71
2022/08/26 19:28:59;;;;;;;5.18;2.47;;;;;;;17.22;74.20;101800.72;10281441;28;20121;-72
2022/08/26 19:34:00;;;;;;;5.07;2.05;;;;;;;17.21;73.41;101815.47;10299787;28;20129;-72
2022/08/26 19:39:03;;;;;;;3.03;1.77;;;;;;;17.12;74.26;101814.06;10298235;28;20125;-72
2022/08/26 19:44:06;;;;;;;9.52;2.88;;;;;;;17.09;74.39;101815.31;10297579;28;20057;-72
2022/08/26 19:49:06;;;;;;;1.98;1.88;;;;;;;16.96;73.78;101821.69;10298152;28;20117;-73
2022/08/26 19:54:07;;;;;;;2.40;1.63;;;;;;;16.90;74.02;101822.56;10298985;28;20432;-72
2022/08/26 19:59:07;;;;;;;5.55;1.95;;;;;;;16.82;73.86;101828.28;10296528;28;20039;-73
2022/08/26 20:04:08;;;;;;;6.03;2.30;;;;;;;16.74;74.10;101831.22;10297915;28;20507;-73
2022/08/26 20:09:08;;;;;;;2.83;2.25;;;;;;;16.65;73.88;101827.88;10296499;28;20043;-73
2022/08/26 20:14:08;;;;;;;5.95;2.85;;;;;;;16.52;73.59;101833.38;10299894;28;20095;-72
2022/08/26 20:24:28;;;;;;;3.75;3.38;;;;;;;16.36;73.93;101822.91;10297006;28;20034;-73
2022/08/26 20:29:29;;;;;;;9.32;2.88;;;;;;;16.32;74.01;101827.13;10296037;28;20086;-73
2022/08/26 20:34:29;;;;;;;6.60;2.55;;;;;;;16.25;73.97;101824.41;10279077;28;20095;-70
2022/08/26 20:39:29;;;;;;;6.13;2.00;;;;;;;16.23;74.76;101831.97;10279535;28;20045;-71
2022/08/26 20:44:30;;;;;;;7.97;3.15;;;;;;;16.18;74.49;101826.34;10295042;28;20114;-71
2022/08/26 20:49:31;;;;;;;5.57;1.98;;;;;;;16.14;74.64;101833.25;10295804;28;20042;-71
2022/08/26 20:54:31;;;;;;;3.00;2.13;;;;;;;16.09;75.17;101830.31;10295655;28;20030;-71
2022/08/26 20:59:31;;;;;;;3.13;2.83;;;;;;;16.02;75.01;101825.72;10295487;28;20043;-71
2022/08/26 21:04:32;;;;;;;6.45;2.63;;;;;;;15.92;75.27;101822.56;10295148;28;20081;-71
2022/08/26 21:09:32;;;;;;;2.63;2.25;;;;;;;15.92;75.36;101828.03;10294207;28;20038;-71
2022/08/26 21:14:33;;;;;;;7.63;2.13;;;;;;;15.89;75.30;101825.72;10294232;28;20034;-70
2022/08/26 21:19:33;;;;;;;2.72;2.00;;;;;;;15.78;75.46;101823.59;10294635;28;20479;-70
2022/08/26 21:24:33;;;;;;;5.47;2.28;;;;;;;15.70;76.01;101815.63;10295787;28;20039;-70
2022/08/26 21:29:34;;;;;;;4.63;3.17;;;;;;;15.67;76.27;101821.50;10294364;28;20471;-71
2022/08/26 21:34:35;;;;;;;12.15;3.22;;;;;;;15.59;75.93;101817.88;10295132;28;20049;-70
2022/08/26 21:39:35;;;;;;;12.80;4.80;;;;;;;15.55;76.62;101816.63;10294182;28;20035;-70
2022/08/26 21:44:36;;;;;;;3.90;3.25;;;;;;;15.50;76.45;101818.28;10293871;28;20031;-70
2022/08/26 21:49:36;;;;;;;4.85;2.25;;;;;;;15.43;77.07;101821.00;10294061;28;20039;-69
2022/08/26 21:54:37;;;;;;;6.47;3.22;;;;;;;15.34;77.12;101823.06;10293567;28;20038;-71
2022/08/26 21:59:37;;;;;;;8.18;3.28;;;;;;;15.34;77.48;101827.69;10302310;28;20482;-70
2022/08/26 22:04:38;;;;;;;3.17;2.88;;;;;;;15.29;77.35;101828.34;10303171;28;20074;-70
2022/08/26 22:09:38;;;;;;;7.13;3.47;;;;;;;15.28;77.05;101825.78;10302079;28;20043;-71
2022/08/26 22:14:38;;;;;;;9.45;3.13;;;;;;;15.23;77.82;101828.31;10301696;28;20494;-71
2022/08/26 22:19:40;;;;;;;10.80;4.05;;;;;;;15.16;77.78;101827.47;10303050;28;20042;-70
2022/08/26 22:24:42;;;;;;;11.05;3.28;;;;;;;15.09;77.66;101827.41;10300286;28;20058;-70
2022/08/26 22:29:42;;;;;;;10.32;3.78;;;;;;;15.06;77.98;101836.88;10301314;28;20530;-70
2022/08/26 22:34:43;;;;;;;9.88;3.67;;;;;;;15.04;78.51;101838.13;10301947;28;20070;-70
2022/08/26 22:39:44;;;;;;;7.82;3.40;;;;;;;14.96;78.74;101830.94;10301117;28;20073;-70
2022/08/26 22:44:44;;;;;;;9.85;3.80;;;;;;;14.95;78.40;101832.00;10301301;28;20059;-69
2022/08/26 22:49:45;;;;;;;8.02;3.20;;;;;;;14.93;78.46;101823.16;10301970;28;20035;-70
2022/08/26 22:54:46;;;;;;;9.65;3.92;;;;;;;14.86;79.18;101814.13;10300190;28;20042;-70
2022/08/26 22:59:46;;;;;;;4.10;3.70;;;;;;;14.79;79.27;101814.09;10299424;28;20037;-70
2022/08/26 23:04:48;;;;;;;10.60;3.30;;;;;;;14.77;78.83;101827.09;10301027;28;20030;-70
2022/08/26 23:09:49;;;;;;;8.25;4.03;;;;;;;14.73;79.77;101822.25;10298688;28;20066;-70
2022/08/26 23:14:49;;;;;;;4.63;3.22;;;;;;;14.71;79.65;101807.97;10300695;28;20398;-70
2022/08/26 23:19:49;;;;;;;6.65;3.58;;;;;;;14.71;79.46;101813.41;10299822;28;20048;-70
2022/08/26 23:24:50;;;;;;;3.90;3.45;;;;;;;14.68;80.43;101809.22;10299130;28;20089;-70